sensor_id;sensor_type;location;lat;lon;timestamp;P1;durP1;ratioP1;P2;durP2;ratioP2
16294;SDS011;8255;49.560;8.244;2023-03-08T00:01:09;7.63;;;6.80;;
16294;SDS011;8255;49.560;8.244;2023-03-08T00:03:36;7.13;;;6.10;;
16294;SDS011;8255;49.560;8.244;2023-03-08T00:06:04;7.17;;;6.10;;
16294;SDS011;8255;49.560;8.244;2023-03-08T00:08:30;8.13;;;5.97;;
16294;SDS011;8255;49.560;8.244;2023-03-08T00:10:56;8.30;;;6.30;;
16294;SDS011;8255;49.560;8.244;2023-03-08T00:13:23;7.00;;;6.23;;
16294;SDS011;8255;49.560;8.244;2023-03-08T00:15:49;7.10;;;6.10;;
16294;SDS011;8255;49.560;8.244;2023-03-08T00:18:17;8.73;;;7.03;;
16294;SDS011;8255;49.560;8.244;2023-03-08T00:20:43;10.73;;;8.23;;
16294;SDS011;8255;49.560;8.244;2023-03-08T00:23:11;9.67;;;6.50;;
16294;SDS011;8255;49.560;8.244;2023-03-08T00:25:37;6.83;;;5.90;;
16294;SDS011;8255;49.560;8.244;2023-03-08T00:28:03;7.97;;;6.73;;
16294;SDS011;8255;49.560;8.244;2023-03-08T00:30:30;6.87;;;6.13;;
16294;SDS011;8255;49.560;8.244;2023-03-08T00:32:56;7.00;;;6.27;;
16294;SDS011;8255;49.560;8.244;2023-03-08T00:35:22;9.80;;;6.70;;
16294;SDS011;8255;49.560;8.244;2023-03-08T00:37:49;9.60;;;6.90;;
16294;SDS011;8255;49.560;8.244;2023-03-08T00:40:16;8.70;;;6.43;;
16294;SDS011;8255;49.560;8.244;2023-03-08T00:42:43;7.03;;;6.33;;
16294;SDS011;8255;49.560;8.244;2023-03-08T00:45:09;10.57;;;7.07;;
16294;SDS011;8255;49.560;8.244;2023-03-08T00:47:36;7.60;;;6.50;;
16294;SDS011;8255;49.560;8.244;2023-03-08T00:50:05;7.33;;;6.30;;
16294;SDS011;8255;49.560;8.244;2023-03-08T00:52:31;9.17;;;6.57;;
16294;SDS011;8255;49.560;8.244;2023-03-08T00:54:57;8.37;;;6.57;;
16294;SDS011;8255;49.560;8.244;2023-03-08T00:57:25;8.43;;;6.43;;
16294;SDS011;8255;49.560;8.244;2023-03-08T00:59:51;8.27;;;6.30;;
16294;SDS011;8255;49.560;8.244;2023-03-08T01:02:18;9.13;;;6.30;;
16294;SDS011;8255;49.560;8.244;2023-03-08T01:04:44;7.70;;;6.60;;
16294;SDS011;8255;49.560;8.244;2023-03-08T01:07:10;8.10;;;6.00;;
16294;SDS011;8255;49.560;8.244;2023-03-08T01:09:37;8.93;;;6.70;;
16294;SDS011;8255;49.560;8.244;2023-03-08T01:12:04;6.57;;;5.83;;
16294;SDS011;8255;49.560;8.244;2023-03-08T01:14:32;7.73;;;6.57;;
16294;SDS011;8255;49.560;8.244;2023-03-08T01:16:58;7.63;;;6.13;;
16294;SDS011;8255;49.560;8.244;2023-03-08T01:19:25;7.70;;;5.93;;
16294;SDS011;8255;49.560;8.244;2023-03-08T01:21:51;8.87;;;6.13;;
16294;SDS011;8255;49.560;8.244;2023-03-08T01:24:17;8.73;;;6.60;;
16294;SDS011;8255;49.560;8.244;2023-03-08T01:26:45;9.10;;;6.33;;
16294;SDS011;8255;49.560;8.244;2023-03-08T01:29:11;7.27;;;6.50;;
16294;SDS011;8255;49.560;8.244;2023-03-08T01:31:39;7.67;;;6.27;;
16294;SDS011;8255;49.560;8.244;2023-03-08T01:34:05;8.03;;;6.10;;
16294;SDS011;8255;49.560;8.244;2023-03-08T01:36:32;8.13;;;5.97;;
16294;SDS011;8255;49.560;8.244;2023-03-08T01:38:58;7.93;;;6.60;;
16294;SDS011;8255;49.560;8.244;2023-03-08T01:41:26;8.90;;;7.47;;
16294;SDS011;8255;49.560;8.244;2023-03-08T01:43:53;10.83;;;8.30;;
16294;SDS011;8255;49.560;8.244;2023-03-08T01:46:24;7.43;;;6.67;;
16294;SDS011;8255;49.560;8.244;2023-03-08T01:49:04;7.77;;;6.23;;
16294;SDS011;8255;49.560;8.244;2023-03-08T01:51:33;10.30;;;5.57;;
16294;SDS011;8255;49.560;8.244;2023-03-08T01:54:01;8.10;;;6.80;;
16294;SDS011;8255;49.560;8.244;2023-03-08T01:56:27;7.87;;;6.47;;
16294;SDS011;8255;49.560;8.244;2023-03-08T01:58:54;7.47;;;5.83;;
16294;SDS011;8255;49.560;8.244;2023-03-08T02:01:22;8.50;;;6.10;;
16294;SDS011;8255;49.560;8.244;2023-03-08T02:03:51;8.17;;;5.87;;
16294;SDS011;8255;49.560;8.244;2023-03-08T02:06:19;9.37;;;6.80;;
16294;SDS011;8255;49.560;8.244;2023-03-08T02:08:46;8.13;;;6.67;;
16294;SDS011;8255;49.560;8.244;2023-03-08T02:11:12;8.27;;;6.50;;
16294;SDS011;8255;49.560;8.244;2023-03-08T02:13:40;8.37;;;6.37;;
16294;SDS011;8255;49.560;8.244;2023-03-08T02:16:08;7.30;;;6.10;;
16294;SDS011;8255;49.560;8.244;2023-03-08T02:18:36;6.70;;;6.00;;
16294;SDS011;8255;49.560;8.244;2023-03-08T02:21:04;10.83;;;6.83;;
16294;SDS011;8255;49.560;8.244;2023-03-08T02:23:33;7.33;;;6.27;;
16294;SDS011;8255;49.560;8.244;2023-03-08T02:26:01;6.77;;;6.00;;
16294;SDS011;8255;49.560;8.244;2023-03-08T02:28:28;7.27;;;6.50;;
16294;SDS011;8255;49.560;8.244;2023-03-08T02:30:55;9.47;;;6.20;;
16294;SDS011;8255;49.560;8.244;2023-03-08T02:33:21;10.37;;;6.43;;
16294;SDS011;8255;49.560;8.244;2023-03-08T02:35:48;8.40;;;6.47;;
16294;SDS011;8255;49.560;8.244;2023-03-08T02:38:15;8.73;;;6.53;;
16294;SDS011;8255;49.560;8.244;2023-03-08T02:40:43;9.73;;;6.73;;
16294;SDS011;8255;49.560;8.244;2023-03-08T02:43:09;8.40;;;6.63;;
16294;SDS011;8255;49.560;8.244;2023-03-08T02:45:38;7.93;;;6.63;;
16294;SDS011;8255;49.560;8.244;2023-03-08T02:48:06;8.20;;;5.97;;
16294;SDS011;8255;49.560;8.244;2023-03-08T02:50:32;10.30;;;6.43;;
16294;SDS011;8255;49.560;8.244;2023-03-08T02:53:00;8.70;;;6.53;;
16294;SDS011;8255;49.560;8.244;2023-03-08T02:55:27;8.90;;;6.67;;
16294;SDS011;8255;49.560;8.244;2023-03-08T02:57:54;8.03;;;6.13;;
16294;SDS011;8255;49.560;8.244;2023-03-08T03:00:21;7.43;;;6.63;;
16294;SDS011;8255;49.560;8.244;2023-03-08T03:02:48;9.60;;;7.23;;
16294;SDS011;8255;49.560;8.244;2023-03-08T03:05:14;8.57;;;6.53;;
16294;SDS011;8255;49.560;8.244;2023-03-08T03:07:41;7.53;;;6.53;;
16294;SDS011;8255;49.560;8.244;2023-03-08T03:10:14;7.93;;;6.77;;
16294;SDS011;8255;49.560;8.244;2023-03-08T03:12:41;7.67;;;6.30;;
16294;SDS011;8255;49.560;8.244;2023-03-08T03:15:12;8.93;;;6.70;;
16294;SDS011;8255;49.560;8.244;2023-03-08T03:17:40;6.80;;;6.10;;
16294;SDS011;8255;49.560;8.244;2023-03-08T03:20:07;7.63;;;6.30;;
16294;SDS011;8255;49.560;8.244;2023-03-08T03:22:34;8.00;;;6.63;;
16294;SDS011;8255;49.560;8.244;2023-03-08T03:25:00;8.03;;;5.90;;
16294;SDS011;8255;49.560;8.244;2023-03-08T03:27:27;8.37;;;6.53;;
16294;SDS011;8255;49.560;8.244;2023-03-08T03:29:54;9.53;;;6.87;;
16294;SDS011;8255;49.560;8.244;2023-03-08T03:32:22;8.30;;;7.10;;
16294;SDS011;8255;49.560;8.244;2023-03-08T03:34:48;7.10;;;5.87;;
16294;SDS011;8255;49.560;8.244;2023-03-08T03:37:17;8.30;;;5.97;;
16294;SDS011;8255;49.560;8.244;2023-03-08T03:39:44;7.97;;;6.13;;
16294;SDS011;8255;49.560;8.244;2023-03-08T03:42:13;6.60;;;5.47;;
16294;SDS011;8255;49.560;8.244;2023-03-08T03:44:47;6.17;;;5.43;;
16294;SDS011;8255;49.560;8.244;2023-03-08T03:47:18;9.13;;;6.03;;
16294;SDS011;8255;49.560;8.244;2023-03-08T03:49:47;7.53;;;5.77;;
16294;SDS011;8255;49.560;8.244;2023-03-08T03:52:15;9.47;;;5.93;;
16294;SDS011;8255;49.560;8.244;2023-03-08T03:54:49;8.53;;;6.13;;
16294;SDS011;8255;49.560;8.244;2023-03-08T03:57:15;8.07;;;6.73;;
16294;SDS011;8255;49.560;8.244;2023-03-08T03:59:42;8.13;;;7.10;;
16294;SDS011;8255;49.560;8.244;2023-03-08T04:02:09;7.50;;;6.07;;
16294;SDS011;8255;49.560;8.244;2023-03-08T04:04:41;6.80;;;5.70;;
16294;SDS011;8255;49.560;8.244;2023-03-08T04:07:11;8.60;;;6.00;;
16294;SDS011;8255;49.560;8.244;2023-03-08T04:09:42;7.57;;;5.70;;
16294;SDS011;8255;49.560;8.244;2023-03-08T04:12:13;6.07;;;5.47;;
16294;SDS011;8255;49.560;8.244;2023-03-08T04:14:43;7.47;;;6.17;;
16294;SDS011;8255;49.560;8.244;2023-03-08T04:17:11;8.07;;;5.77;;
16294;SDS011;8255;49.560;8.244;2023-03-08T04:19:42;6.33;;;5.50;;
16294;SDS011;8255;49.560;8.244;2023-03-08T04:22:12;7.07;;;6.10;;
16294;SDS011;8255;49.560;8.244;2023-03-08T04:25:02;6.97;;;6.27;;
16294;SDS011;8255;49.560;8.244;2023-03-08T04:27:38;8.43;;;6.27;;
16294;SDS011;8255;49.560;8.244;2023-03-08T04:30:05;7.40;;;6.27;;
16294;SDS011;8255;49.560;8.244;2023-03-08T04:32:32;8.40;;;6.00;;
16294;SDS011;8255;49.560;8.244;2023-03-08T04:34:58;8.00;;;6.27;;
16294;SDS011;8255;49.560;8.244;2023-03-08T04:37:28;8.30;;;6.80;;
16294;SDS011;8255;49.560;8.244;2023-03-08T04:40:02;8.73;;;5.90;;
16294;SDS011;8255;49.560;8.244;2023-03-08T04:42:33;6.97;;;5.87;;
16294;SDS011;8255;49.560;8.244;2023-03-08T04:45:00;6.73;;;5.93;;
16294;SDS011;8255;49.560;8.244;2023-03-08T04:47:27;8.53;;;5.97;;
16294;SDS011;8255;49.560;8.244;2023-03-08T04:49:54;7.13;;;6.13;;
16294;SDS011;8255;49.560;8.244;2023-03-08T04:52:20;8.83;;;6.70;;
16294;SDS011;8255;49.560;8.244;2023-03-08T04:54:48;7.47;;;6.27;;
16294;SDS011;8255;49.560;8.244;2023-03-08T04:57:21;7.90;;;6.33;;
16294;SDS011;8255;49.560;8.244;2023-03-08T04:59:49;8.97;;;6.90;;
16294;SDS011;8255;49.560;8.244;2023-03-08T05:02:15;6.67;;;5.93;;
16294;SDS011;8255;49.560;8.244;2023-03-08T05:04:43;8.00;;;6.40;;
16294;SDS011;8255;49.560;8.244;2023-03-08T05:07:10;7.63;;;5.63;;
16294;SDS011;8255;49.560;8.244;2023-03-08T05:09:36;9.27;;;6.87;;
16294;SDS011;8255;49.560;8.244;2023-03-08T05:12:04;7.53;;;6.40;;
16294;SDS011;8255;49.560;8.244;2023-03-08T05:14:43;8.37;;;6.67;;
16294;SDS011;8255;49.560;8.244;2023-03-08T05:17:09;10.00;;;7.20;;
16294;SDS011;8255;49.560;8.244;2023-03-08T05:19:36;10.33;;;8.03;;
16294;SDS011;8255;49.560;8.244;2023-03-08T05:22:03;8.33;;;6.97;;
16294;SDS011;8255;49.560;8.244;2023-03-08T05:24:31;8.23;;;7.00;;
16294;SDS011;8255;49.560;8.244;2023-03-08T05:27:05;9.07;;;6.30;;
16294;SDS011;8255;49.560;8.244;2023-03-08T05:29:32;7.37;;;6.37;;
16294;SDS011;8255;49.560;8.244;2023-03-08T05:31:59;8.63;;;6.90;;
16294;SDS011;8255;49.560;8.244;2023-03-08T05:34:28;8.87;;;7.03;;
16294;SDS011;8255;49.560;8.244;2023-03-08T05:36:55;8.07;;;6.10;;
16294;SDS011;8255;49.560;8.244;2023-03-08T05:39:21;11.27;;;7.47;;
16294;SDS011;8255;49.560;8.244;2023-03-08T05:41:55;9.97;;;7.23;;
16294;SDS011;8255;49.560;8.244;2023-03-08T05:44:28;9.90;;;7.07;;
16294;SDS011;8255;49.560;8.244;2023-03-08T05:46:57;9.70;;;7.40;;
16294;SDS011;8255;49.560;8.244;2023-03-08T05:49:24;7.67;;;6.47;;
16294;SDS011;8255;49.560;8.244;2023-03-08T05:51:51;8.67;;;6.90;;
16294;SDS011;8255;49.560;8.244;2023-03-08T05:54:18;9.57;;;6.47;;
16294;SDS011;8255;49.560;8.244;2023-03-08T05:56:47;9.30;;;6.70;;
16294;SDS011;8255;49.560;8.244;2023-03-08T05:59:23;9.70;;;6.60;;
16294;SDS011;8255;49.560;8.244;2023-03-08T06:01:52;8.23;;;6.57;;
16294;SDS011;8255;49.560;8.244;2023-03-08T06:04:32;9.33;;;7.27;;
16294;SDS011;8255;49.560;8.244;2023-03-08T06:06:59;9.40;;;6.63;;
16294;SDS011;8255;49.560;8.244;2023-03-08T06:09:31;10.80;;;6.80;;
16294;SDS011;8255;49.560;8.244;2023-03-08T06:11:58;9.67;;;6.93;;
16294;SDS011;8255;49.560;8.244;2023-03-08T06:14:24;11.47;;;7.57;;
16294;SDS011;8255;49.560;8.244;2023-03-08T06:16:52;11.20;;;7.50;;
16294;SDS011;8255;49.560;8.244;2023-03-08T06:19:23;12.37;;;6.60;;
16294;SDS011;8255;49.560;8.244;2023-03-08T06:21:52;11.37;;;7.90;;
16294;SDS011;8255;49.560;8.244;2023-03-08T06:24:18;11.60;;;9.53;;
16294;SDS011;8255;49.560;8.244;2023-03-08T06:26:45;11.20;;;7.97;;
16294;SDS011;8255;49.560;8.244;2023-03-08T06:29:13;11.10;;;7.83;;
16294;SDS011;8255;49.560;8.244;2023-03-08T06:31:40;9.17;;;7.17;;
16294;SDS011;8255;49.560;8.244;2023-03-08T06:34:08;11.53;;;8.37;;
16294;SDS011;8255;49.560;8.244;2023-03-08T06:36:34;11.43;;;7.60;;
16294;SDS011;8255;49.560;8.244;2023-03-08T06:39:00;9.33;;;7.90;;
16294;SDS011;8255;49.560;8.244;2023-03-08T06:41:27;9.97;;;7.73;;
16294;SDS011;8255;49.560;8.244;2023-03-08T06:43:57;12.23;;;8.27;;
16294;SDS011;8255;49.560;8.244;2023-03-08T06:46:24;10.10;;;7.63;;
16294;SDS011;8255;49.560;8.244;2023-03-08T06:48:50;11.43;;;8.57;;
16294;SDS011;8255;49.560;8.244;2023-03-08T06:51:19;10.80;;;8.13;;
16294;SDS011;8255;49.560;8.244;2023-03-08T06:53:46;14.33;;;8.97;;
16294;SDS011;8255;49.560;8.244;2023-03-08T06:56:16;12.20;;;8.10;;
16294;SDS011;8255;49.560;8.244;2023-03-08T06:58:43;11.43;;;7.90;;
16294;SDS011;8255;49.560;8.244;2023-03-08T07:01:10;12.13;;;9.03;;
16294;SDS011;8255;49.560;8.244;2023-03-08T07:03:37;10.67;;;7.87;;
16294;SDS011;8255;49.560;8.244;2023-03-08T07:06:04;11.23;;;8.23;;
16294;SDS011;8255;49.560;8.244;2023-03-08T07:08:33;14.03;;;8.40;;
16294;SDS011;8255;49.560;8.244;2023-03-08T07:10:59;13.63;;;8.67;;
16294;SDS011;8255;49.560;8.244;2023-03-08T07:13:25;12.70;;;8.50;;
16294;SDS011;8255;49.560;8.244;2023-03-08T07:15:53;12.23;;;9.03;;
16294;SDS011;8255;49.560;8.244;2023-03-08T07:18:20;13.10;;;8.30;;
16294;SDS011;8255;49.560;8.244;2023-03-08T07:20:50;12.87;;;9.17;;
16294;SDS011;8255;49.560;8.244;2023-03-08T07:23:16;13.57;;;9.27;;
16294;SDS011;8255;49.560;8.244;2023-03-08T07:25:44;12.37;;;7.63;;
16294;SDS011;8255;49.560;8.244;2023-03-08T07:28:10;15.33;;;9.23;;
16294;SDS011;8255;49.560;8.244;2023-03-08T07:30:36;11.77;;;8.40;;
16294;SDS011;8255;49.560;8.244;2023-03-08T07:33:03;12.03;;;7.47;;
16294;SDS011;8255;49.560;8.244;2023-03-08T07:35:29;10.33;;;7.80;;
16294;SDS011;8255;49.560;8.244;2023-03-08T07:37:55;9.97;;;7.63;;
16294;SDS011;8255;49.560;8.244;2023-03-08T07:40:22;12.20;;;8.67;;
16294;SDS011;8255;49.560;8.244;2023-03-08T07:42:50;9.67;;;6.90;;
16294;SDS011;8255;49.560;8.244;2023-03-08T07:45:28;11.73;;;8.43;;
16294;SDS011;8255;49.560;8.244;2023-03-08T07:47:55;11.00;;;7.93;;
16294;SDS011;8255;49.560;8.244;2023-03-08T07:50:21;13.53;;;7.50;;
16294;SDS011;8255;49.560;8.244;2023-03-08T07:52:48;10.53;;;8.10;;
16294;SDS011;8255;49.560;8.244;2023-03-08T07:55:15;10.73;;;7.53;;
16294;SDS011;8255;49.560;8.244;2023-03-08T07:57:41;12.60;;;8.90;;
16294;SDS011;8255;49.560;8.244;2023-03-08T08:00:10;10.77;;;7.33;;
16294;SDS011;8255;49.560;8.244;2023-03-08T08:02:39;7.97;;;5.57;;
16294;SDS011;8255;49.560;8.244;2023-03-08T08:05:05;14.23;;;9.63;;
16294;SDS011;8255;49.560;8.244;2023-03-08T08:07:32;15.70;;;10.23;;
16294;SDS011;8255;49.560;8.244;2023-03-08T08:09:58;11.23;;;6.90;;
16294;SDS011;8255;49.560;8.244;2023-03-08T08:12:24;15.10;;;10.00;;
16294;SDS011;8255;49.560;8.244;2023-03-08T08:14:50;15.00;;;9.80;;
16294;SDS011;8255;49.560;8.244;2023-03-08T08:17:18;14.73;;;8.57;;
16294;SDS011;8255;49.560;8.244;2023-03-08T08:19:45;15.97;;;10.20;;
16294;SDS011;8255;49.560;8.244;2023-03-08T08:22:11;12.93;;;9.77;;
16294;SDS011;8255;49.560;8.244;2023-03-08T08:24:38;13.87;;;8.83;;
16294;SDS011;8255;49.560;8.244;2023-03-08T08:27:04;14.90;;;10.50;;
16294;SDS011;8255;49.560;8.244;2023-03-08T08:29:31;16.10;;;9.10;;
16294;SDS011;8255;49.560;8.244;2023-03-08T08:31:57;15.90;;;8.83;;
16294;SDS011;8255;49.560;8.244;2023-03-08T08:34:25;12.47;;;7.87;;
16294;SDS011;8255;49.560;8.244;2023-03-08T08:36:51;14.27;;;9.63;;
16294;SDS011;8255;49.560;8.244;2023-03-08T08:39:17;13.97;;;9.67;;
16294;SDS011;8255;49.560;8.244;2023-03-08T08:41:44;15.73;;;9.57;;
16294;SDS011;8255;49.560;8.244;2023-03-08T08:44:10;16.00;;;9.93;;
16294;SDS011;8255;49.560;8.244;2023-03-08T08:46:36;12.63;;;8.57;;
16294;SDS011;8255;49.560;8.244;2023-03-08T08:49:03;17.87;;;11.00;;
16294;SDS011;8255;49.560;8.244;2023-03-08T08:51:31;12.53;;;9.03;;
16294;SDS011;8255;49.560;8.244;2023-03-08T08:53:58;15.87;;;10.50;;
16294;SDS011;8255;49.560;8.244;2023-03-08T08:56:25;12.07;;;7.43;;
16294;SDS011;8255;49.560;8.244;2023-03-08T08:58:52;13.03;;;10.27;;
16294;SDS011;8255;49.560;8.244;2023-03-08T09:01:19;15.03;;;10.70;;
16294;SDS011;8255;49.560;8.244;2023-03-08T09:03:45;17.13;;;10.13;;
16294;SDS011;8255;49.560;8.244;2023-03-08T09:06:12;13.73;;;8.90;;
16294;SDS011;8255;49.560;8.244;2023-03-08T09:08:40;15.23;;;10.57;;
16294;SDS011;8255;49.560;8.244;2023-03-08T09:11:07;15.40;;;10.43;;
16294;SDS011;8255;49.560;8.244;2023-03-08T09:13:34;15.50;;;9.43;;
16294;SDS011;8255;49.560;8.244;2023-03-08T09:16:02;13.93;;;9.63;;
16294;SDS011;8255;49.560;8.244;2023-03-08T09:18:28;15.50;;;10.17;;
16294;SDS011;8255;49.560;8.244;2023-03-08T09:20:55;15.17;;;10.60;;
16294;SDS011;8255;49.560;8.244;2023-03-08T09:23:21;17.33;;;10.97;;
16294;SDS011;8255;49.560;8.244;2023-03-08T09:25:55;17.40;;;10.73;;
16294;SDS011;8255;49.560;8.244;2023-03-08T09:28:21;9.10;;;5.97;;
16294;SDS011;8255;49.560;8.244;2023-03-08T09:30:48;14.33;;;8.83;;
16294;SDS011;8255;49.560;8.244;2023-03-08T09:33:14;16.13;;;11.63;;
16294;SDS011;8255;49.560;8.244;2023-03-08T09:35:40;16.30;;;11.60;;
16294;SDS011;8255;49.560;8.244;2023-03-08T09:38:06;13.73;;;10.27;;
16294;SDS011;8255;49.560;8.244;2023-03-08T09:40:34;14.23;;;10.63;;
16294;SDS011;8255;49.560;8.244;2023-03-08T09:43:05;15.93;;;10.40;;
16294;SDS011;8255;49.560;8.244;2023-03-08T09:45:32;15.87;;;10.83;;
16294;SDS011;8255;49.560;8.244;2023-03-08T09:47:59;20.00;;;12.00;;
16294;SDS011;8255;49.560;8.244;2023-03-08T09:50:33;20.53;;;11.70;;
16294;SDS011;8255;49.560;8.244;2023-03-08T09:53:02;15.00;;;11.10;;
16294;SDS011;8255;49.560;8.244;2023-03-08T09:55:30;9.50;;;8.13;;
16294;SDS011;8255;49.560;8.244;2023-03-08T09:57:59;16.33;;;12.20;;
16294;SDS011;8255;49.560;8.244;2023-03-08T10:00:28;13.53;;;10.60;;
16294;SDS011;8255;49.560;8.244;2023-03-08T10:03:00;11.43;;;8.90;;
16294;SDS011;8255;49.560;8.244;2023-03-08T10:05:29;15.57;;;12.07;;
16294;SDS011;8255;49.560;8.244;2023-03-08T10:07:59;16.17;;;10.37;;
16294;SDS011;8255;49.560;8.244;2023-03-08T10:10:32;17.23;;;12.10;;
16294;SDS011;8255;49.560;8.244;2023-03-08T10:13:14;14.40;;;10.20;;
16294;SDS011;8255;49.560;8.244;2023-03-08T10:15:46;18.23;;;12.33;;
16294;SDS011;8255;49.560;8.244;2023-03-08T10:18:15;14.30;;;12.00;;
16294;SDS011;8255;49.560;8.244;2023-03-08T10:20:43;16.20;;;11.93;;
16294;SDS011;8255;49.560;8.244;2023-03-08T10:23:11;13.97;;;10.47;;
16294;SDS011;8255;49.560;8.244;2023-03-08T10:25:38;19.97;;;12.43;;
16294;SDS011;8255;49.560;8.244;2023-03-08T10:28:08;14.60;;;12.67;;
16294;SDS011;8255;49.560;8.244;2023-03-08T10:30:37;17.43;;;11.43;;
16294;SDS011;8255;49.560;8.244;2023-03-08T10:33:07;14.43;;;11.60;;
16294;SDS011;8255;49.560;8.244;2023-03-08T10:35:36;15.70;;;11.07;;
16294;SDS011;8255;49.560;8.244;2023-03-08T10:38:02;17.40;;;12.10;;
16294;SDS011;8255;49.560;8.244;2023-03-08T10:40:29;16.80;;;11.97;;
16294;SDS011;8255;49.560;8.244;2023-03-08T10:42:57;19.67;;;12.27;;
16294;SDS011;8255;49.560;8.244;2023-03-08T10:45:25;16.63;;;12.40;;
16294;SDS011;8255;49.560;8.244;2023-03-08T10:47:53;15.70;;;11.90;;
16294;SDS011;8255;49.560;8.244;2023-03-08T10:50:22;14.23;;;11.57;;
16294;SDS011;8255;49.560;8.244;2023-03-08T10:52:49;16.80;;;11.67;;
16294;SDS011;8255;49.560;8.244;2023-03-08T10:55:16;15.53;;;10.90;;
16294;SDS011;8255;49.560;8.244;2023-03-08T10:57:47;16.10;;;11.43;;
16294;SDS011;8255;49.560;8.244;2023-03-08T11:00:30;15.50;;;11.53;;
16294;SDS011;8255;49.560;8.244;2023-03-08T11:03:09;14.10;;;10.90;;
16294;SDS011;8255;49.560;8.244;2023-03-08T11:05:38;15.80;;;12.20;;
16294;SDS011;8255;49.560;8.244;2023-03-08T11:08:13;16.47;;;11.73;;
16294;SDS011;8255;49.560;8.244;2023-03-08T11:10:41;16.70;;;11.77;;
16294;SDS011;8255;49.560;8.244;2023-03-08T11:13:11;18.90;;;12.63;;
16294;SDS011;8255;49.560;8.244;2023-03-08T11:15:42;13.37;;;10.77;;
16294;SDS011;8255;49.560;8.244;2023-03-08T11:18:13;15.73;;;12.03;;
16294;SDS011;8255;49.560;8.244;2023-03-08T11:20:45;17.30;;;12.37;;
16294;SDS011;8255;49.560;8.244;2023-03-08T11:23:15;15.10;;;10.77;;
16294;SDS011;8255;49.560;8.244;2023-03-08T11:25:44;14.57;;;12.50;;
16294;SDS011;8255;49.560;8.244;2023-03-08T11:28:20;15.07;;;11.70;;
16294;SDS011;8255;49.560;8.244;2023-03-08T11:30:51;15.70;;;12.07;;
16294;SDS011;8255;49.560;8.244;2023-03-08T11:33:24;16.33;;;11.27;;
16294;SDS011;8255;49.560;8.244;2023-03-08T11:35:58;11.80;;;10.33;;
16294;SDS011;8255;49.560;8.244;2023-03-08T11:38:28;14.10;;;11.33;;
16294;SDS011;8255;49.560;8.244;2023-03-08T11:40:57;15.07;;;11.17;;
16294;SDS011;8255;49.560;8.244;2023-03-08T11:43:45;13.40;;;10.37;;
16294;SDS011;8255;49.560;8.244;2023-03-08T11:46:14;20.60;;;12.23;;
16294;SDS011;8255;49.560;8.244;2023-03-08T11:48:49;15.53;;;11.00;;
16294;SDS011;8255;49.560;8.244;2023-03-08T11:51:21;17.03;;;10.70;;
16294;SDS011;8255;49.560;8.244;2023-03-08T11:53:52;20.37;;;13.80;;
16294;SDS011;8255;49.560;8.244;2023-03-08T11:56:24;17.63;;;13.87;;
16294;SDS011;8255;49.560;8.244;2023-03-08T11:58:54;13.60;;;10.57;;
16294;SDS011;8255;49.560;8.244;2023-03-08T12:01:24;20.83;;;13.40;;
16294;SDS011;8255;49.560;8.244;2023-03-08T12:03:52;19.67;;;12.40;;
16294;SDS011;8255;49.560;8.244;2023-03-08T12:06:22;17.23;;;12.67;;
16294;SDS011;8255;49.560;8.244;2023-03-08T12:08:49;16.47;;;11.73;;
16294;SDS011;8255;49.560;8.244;2023-03-08T12:11:19;14.80;;;12.47;;
16294;SDS011;8255;49.560;8.244;2023-03-08T12:13:47;14.47;;;10.50;;
16294;SDS011;8255;49.560;8.244;2023-03-08T12:16:16;15.73;;;12.00;;
16294;SDS011;8255;49.560;8.244;2023-03-08T12:18:44;14.77;;;10.90;;
16294;SDS011;8255;49.560;8.244;2023-03-08T12:21:14;17.47;;;11.60;;
16294;SDS011;8255;49.560;8.244;2023-03-08T12:23:46;17.03;;;12.30;;
16294;SDS011;8255;49.560;8.244;2023-03-08T12:26:16;16.67;;;12.10;;
16294;SDS011;8255;49.560;8.244;2023-03-08T12:28:44;16.70;;;11.57;;
16294;SDS011;8255;49.560;8.244;2023-03-08T12:31:18;14.50;;;11.03;;
16294;SDS011;8255;49.560;8.244;2023-03-08T12:33:48;15.40;;;11.10;;
16294;SDS011;8255;49.560;8.244;2023-03-08T12:36:14;16.87;;;10.43;;
16294;SDS011;8255;49.560;8.244;2023-03-08T12:38:43;14.03;;;10.60;;
16294;SDS011;8255;49.560;8.244;2023-03-08T12:41:22;15.30;;;10.57;;
16294;SDS011;8255;49.560;8.244;2023-03-08T12:43:57;13.67;;;10.40;;
16294;SDS011;8255;49.560;8.244;2023-03-08T12:46:24;11.50;;;9.63;;
16294;SDS011;8255;49.560;8.244;2023-03-08T12:48:50;12.10;;;9.17;;
16294;SDS011;8255;49.560;8.244;2023-03-08T12:51:21;12.90;;;8.77;;
16294;SDS011;8255;49.560;8.244;2023-03-08T12:53:57;9.43;;;8.43;;
16294;SDS011;8255;49.560;8.244;2023-03-08T12:56:26;8.17;;;7.37;;
16294;SDS011;8255;49.560;8.244;2023-03-08T12:58:54;3.17;;;2.97;;
16294;SDS011;8255;49.560;8.244;2023-03-08T13:01:22;2.40;;;2.20;;
16294;SDS011;8255;49.560;8.244;2023-03-08T13:03:49;2.05;;;1.90;;
16294;SDS011;8255;49.560;8.244;2023-03-08T13:06:30;4.05;;;2.15;;
16294;SDS011;8255;49.560;8.244;2023-03-08T13:08:59;3.03;;;2.92;;
16294;SDS011;8255;49.560;8.244;2023-03-08T13:11:38;2.17;;;2.08;;
16294;SDS011;8255;49.560;8.244;2023-03-08T13:16:46;1.73;;;1.63;;
16294;SDS011;8255;49.560;8.244;2023-03-08T13:19:16;1.63;;;1.55;;
16294;SDS011;8255;49.560;8.244;2023-03-08T13:21:46;1.83;;;1.73;;
16294;SDS011;8255;49.560;8.244;2023-03-08T13:24:15;2.08;;;1.60;;
16294;SDS011;8255;49.560;8.244;2023-03-08T13:26:48;2.00;;;1.80;;
16294;SDS011;8255;49.560;8.244;2023-03-08T13:29:15;1.40;;;1.35;;
16294;SDS011;8255;49.560;8.244;2023-03-08T13:31:42;1.85;;;1.65;;
16294;SDS011;8255;49.560;8.244;2023-03-08T13:36:54;1.60;;;1.60;;
16294;SDS011;8255;49.560;8.244;2023-03-08T13:39:21;1.80;;;1.80;;
16294;SDS011;8255;49.560;8.244;2023-03-08T13:41:49;2.25;;;2.15;;
16294;SDS011;8255;49.560;8.244;2023-03-08T13:44:15;1.42;;;1.33;;
16294;SDS011;8255;49.560;8.244;2023-03-08T13:46:42;1.13;;;1.13;;
16294;SDS011;8255;49.560;8.244;2023-03-08T13:49:11;1.20;;;1.20;;
16294;SDS011;8255;49.560;8.244;2023-03-08T13:51:38;1.05;;;1.05;;
16294;SDS011;8255;49.560;8.244;2023-03-08T13:54:04;1.20;;;1.20;;
16294;SDS011;8255;49.560;8.244;2023-03-08T13:56:36;1.20;;;1.20;;
16294;SDS011;8255;49.560;8.244;2023-03-08T13:59:04;1.30;;;1.20;;
16294;SDS011;8255;49.560;8.244;2023-03-08T14:01:30;1.73;;;1.63;;
16294;SDS011;8255;49.560;8.244;2023-03-08T14:03:57;2.75;;;2.55;;
16294;SDS011;8255;49.560;8.244;2023-03-08T14:06:27;3.63;;;3.42;;
16294;SDS011;8255;49.560;8.244;2023-03-08T14:08:54;1.10;;;1.10;;
16294;SDS011;8255;49.560;8.244;2023-03-08T14:11:24;1.60;;;1.50;;
16294;SDS011;8255;49.560;8.244;2023-03-08T14:13:53;1.10;;;1.10;;
16294;SDS011;8255;49.560;8.244;2023-03-08T14:16:25;0.82;;;0.82;;
16294;SDS011;8255;49.560;8.244;2023-03-08T14:18:53;0.77;;;0.77;;
16294;SDS011;8255;49.560;8.244;2023-03-08T14:21:20;0.80;;;0.80;;
16294;SDS011;8255;49.560;8.244;2023-03-08T14:23:47;0.93;;;0.93;;
16294;SDS011;8255;49.560;8.244;2023-03-08T14:26:28;1.20;;;1.10;;
16294;SDS011;8255;49.560;8.244;2023-03-08T14:29:02;0.90;;;0.90;;
16294;SDS011;8255;49.560;8.244;2023-03-08T14:31:30;0.82;;;0.82;;
16294;SDS011;8255;49.560;8.244;2023-03-08T14:33:57;0.80;;;0.80;;
16294;SDS011;8255;49.560;8.244;2023-03-08T14:36:24;1.45;;;1.35;;
16294;SDS011;8255;49.560;8.244;2023-03-08T14:38:50;1.52;;;1.50;;
16294;SDS011;8255;49.560;8.244;2023-03-08T14:41:17;1.73;;;1.38;;
16294;SDS011;8255;49.560;8.244;2023-03-08T14:43:46;1.33;;;1.23;;
16294;SDS011;8255;49.560;8.244;2023-03-08T14:46:13;0.80;;;0.80;;
16294;SDS011;8255;49.560;8.244;2023-03-08T14:48:42;1.00;;;1.00;;
16294;SDS011;8255;49.560;8.244;2023-03-08T14:51:23;0.90;;;0.90;;
16294;SDS011;8255;49.560;8.244;2023-03-08T14:53:54;1.10;;;1.10;;
16294;SDS011;8255;49.560;8.244;2023-03-08T14:56:21;0.80;;;0.80;;
16294;SDS011;8255;49.560;8.244;2023-03-08T14:58:48;1.10;;;1.10;;
16294;SDS011;8255;49.560;8.244;2023-03-08T15:01:22;3.03;;;2.92;;
16294;SDS011;8255;49.560;8.244;2023-03-08T15:03:50;2.50;;;2.40;;
16294;SDS011;8255;49.560;8.244;2023-03-08T15:06:18;1.42;;;1.33;;